Time;durP1;ratioP1;P1;durP2;ratioP2;P2;SDS_P1;SDS_P2;PMS_P1;PMS_P2;Temp;Humidity;BMP_temperature;BMP_pressure;BME280_temperature;BME280_humidity;BME280_pressure;Samples;Min_cycle;Max_cycle;Signal;HPM_P1;HPM_P2
2022/06/08 00:01:45;;;;;;;1.75;1.20;;;15.80;78.30;;;;;;5033762;28;20065;-76
2022/06/08 00:04:13;;;;;;;1.42;1.08;;;15.70;78.30;;;;;;5033884;28;20049;-76
2022/06/08 00:06:39;;;;;;;1.75;1.15;;;15.70;78.40;;;;;;5033515;28;20064;-76
2022/06/08 00:09:05;;;;;;;1.10;0.90;;;15.70;78.50;;;;;;5033402;28;20080;-76
2022/06/08 00:11:30;;;;;;;1.40;1.13;;;15.60;78.50;;;;;;5033043;28;20038;-76
2022/06/08 00:13:57;;;;;;;1.85;1.20;;;15.60;78.70;;;;;;5020722;28;20433;-76
2022/06/08 00:16:22;;;;;;;1.73;1.27;;;15.60;78.80;;;;;;5024226;28;20056;-76
2022/06/08 00:18:48;;;;;;;1.08;0.93;;;15.50;78.80;;;;;;5025825;28;20045;-77
2022/06/08 00:21:15;;;;;;;1.67;1.15;;;15.50;78.90;;;;;;5023943;28;20034;-76
2022/06/08 00:23:43;;;;;;;1.13;0.98;;;15.50;79.00;;;;;;5031027;28;20093;-76
2022/06/08 00:26:09;;;;;;;1.17;1.02;;;15.40;79.10;;;;;;5000315;28;20050;-76
2022/06/08 00:28:35;;;;;;;1.30;1.10;;;15.40;79.20;;;;;;5031193;28;20038;-77
2022/06/08 00:31:01;;;;;;;1.40;1.00;;;15.40;79.20;;;;;;5033719;28;20028;-76
2022/06/08 00:33:27;;;;;;;1.00;0.90;;;15.40;79.30;;;;;;5029990;28;20026;-77
2022/06/08 00:35:53;;;;;;;1.48;1.10;;;15.40;79.30;;;;;;5015046;28;20106;-76
2022/06/08 00:38:19;;;;;;;1.63;1.20;;;15.40;79.20;;;;;;5034185;28;20114;-76
2022/06/08 00:40:58;;;;;;;1.02;0.85;;;15.40;79.20;;;;;;5032688;28;20037;-76
2022/06/08 00:43:25;;;;;;;1.20;1.00;;;15.30;79.20;;;;;;5030961;28;20065;-77
2022/06/08 00:45:52;;;;;;;1.52;0.98;;;15.50;79.30;;;;;;5015943;28;20121;-76
2022/06/08 00:48:18;;;;;;;1.10;1.00;;;15.40;79.30;;;;;;5031335;28;20064;-77
2022/06/08 00:50:49;;;;;;;1.23;1.00;;;15.30;79.20;;;;;;5027019;28;20049;-76
2022/06/08 00:53:19;;;;;;;1.95;1.02;;;15.40;79.30;;;;;;4994621;28;20123;-77
2022/06/08 00:55:45;;;;;;;1.50;0.90;;;15.40;79.30;;;;;;5024486;28;20038;-76
2022/06/08 00:58:24;;;;;;;1.50;0.90;;;15.40;79.30;;;;;;5028483;28;20077;-77
2022/06/08 01:00:51;;;;;;;1.20;1.00;;;15.40;79.30;;;;;;5029181;28;20041;-77
2022/06/08 01:03:17;;;;;;;1.20;1.08;;;15.50;79.30;;;;;;5010590;28;20056;-77
2022/06/08 01:05:49;;;;;;;1.02;0.93;;;15.50;79.30;;;;;;5028940;28;20060;-77
2022/06/08 01:08:46;;;;;;;1.17;0.90;;;15.50;79.40;;;;;;5012561;28;20056;-77
2022/06/08 01:11:21;;;;;;;1.50;0.93;;;15.50;79.50;;;;;;5008632;28;20045;-77
2022/06/08 01:13:48;;;;;;;0.77;0.70;;;15.50;79.40;;;;;;5031981;28;20042;-76
2022/06/08 01:16:14;;;;;;;0.70;0.70;;;15.50;79.30;;;;;;5029783;28;20466;-76
2022/06/08 01:18:41;;;;;;;1.55;0.93;;;15.50;79.40;;;;;;5027635;28;20060;-76
2022/06/08 01:21:37;;;;;;;1.40;1.10;;;15.60;79.40;;;;;;5031145;28;20080;-76
2022/06/08 01:24:07;;;;;;;1.98;1.40;;;15.50;79.50;;;;;;5012742;28;20022;-76
2022/06/08 01:26:44;;;;;;;1.70;0.98;;;15.50;79.50;;;;;;5024541;28;20056;-76
2022/06/08 01:29:32;;;;;;;1.02;0.98;;;15.50;79.50;;;;;;5026125;28;20022;-75
2022/06/08 01:32:18;;;;;;;1.15;0.90;;;15.60;79.60;;;;;;5026654;28;20049;-76
2022/06/08 01:35:06;;;;;;;1.20;0.85;;;15.60;79.60;;;;;;5027645;28;20042;-75
2022/06/08 01:38:03;;;;;;;0.90;0.90;;;15.60;79.70;;;;;;5028008;28;20064;-75
2022/06/08 01:40:50;;;;;;;0.75;0.75;;;15.60;79.60;;;;;;4998028;28;20092;-76
2022/06/08 01:43:39;;;;;;;0.75;0.75;;;15.60;79.60;;;;;;5027587;28;20085;-76
2022/06/08 01:46:28;;;;;;;1.00;0.90;;;15.60;79.70;;;;;;5011960;28;20026;-76
2022/06/08 01:49:10;;;;;;;0.80;0.80;;;15.60;79.70;;;;;;5012832;28;20046;-76
2022/06/08 01:51:50;;;;;;;0.80;0.77;;;15.60;79.70;;;;;;5011841;28;20014;-76
2022/06/08 01:54:39;;;;;;;2.13;1.50;;;15.60;79.90;;;;;;5012648;28;20126;-75
2022/06/08 01:57:20;;;;;;;1.70;1.30;;;15.60;79.90;;;;;;5028871;28;20052;-76
2022/06/08 02:00:10;;;;;;;2.03;1.40;;;15.60;80.00;;;;;;4997155;28;20046;-76
2022/06/08 02:02:51;;;;;;;0.70;0.70;;;15.60;80.10;;;;;;5034699;28;20045;-77
2022/06/08 02:05:33;;;;;;;1.73;1.25;;;15.60;80.10;;;;;;5034985;28;20087;-76
2022/06/08 02:08:19;;;;;;;1.95;1.27;;;15.60;80.20;;;;;;5034881;28;20057;-76
2022/06/08 02:10:55;;;;;;;1.70;1.20;;;15.50;80.20;;;;;;5034191;28;20022;-76
2022/06/08 02:13:28;;;;;;;1.40;1.02;;;15.60;80.30;;;;;;5017784;28;20049;-76
2022/06/08 02:16:01;;;;;;;3.03;1.45;;;15.50;80.30;;;;;;5034796;28;20022;-76
2022/06/08 02:18:36;;;;;;;1.65;1.17;;;15.60;80.40;;;;;;5034516;28;20057;-76
2022/06/08 02:21:18;;;;;;;2.03;1.10;;;15.60;80.50;;;;;;5034329;28;20049;-76
2022/06/08 02:23:52;;;;;;;1.67;1.30;;;15.50;80.40;;;;;;5018336;28;20102;-76
2022/06/08 02:26:28;;;;;;;1.08;1.00;;;15.60;80.50;;;;;;5016539;28;20045;-76
2022/06/08 02:29:07;;;;;;;2.20;1.40;;;15.60;80.60;;;;;;5015582;28;20054;-76
2022/06/08 02:31:40;;;;;;;2.35;1.40;;;15.60;80.60;;;;;;5034283;28;20030;-76
2022/06/08 02:36:58;;;;;;;1.67;1.25;;;15.50;80.80;;;;;;5035097;28;20034;-76
2022/06/08 02:39:45;;;;;;;1.95;1.20;;;15.50;80.90;;;;;;5016991;28;20041;-76
2022/06/08 02:42:30;;;;;;;1.27;0.90;;;15.50;81.00;;;;;;5018234;28;20094;-76
2022/06/08 02:45:03;;;;;;;2.00;1.20;;;15.50;81.10;;;;;;5035280;28;20058;-76
2022/06/08 02:47:33;;;;;;;2.85;1.48;;;15.40;81.10;;;;;;5017014;28;20046;-76
2022/06/08 02:50:08;;;;;;;2.10;1.20;;;15.40;81.20;;;;;;5034237;28;20109;-76
2022/06/08 02:52:36;;;;;;;2.10;1.40;;;15.30;81.30;;;;;;5030767;28;20065;-76
2022/06/08 02:55:05;;;;;;;1.70;1.17;;;15.30;81.40;;;;;;5027604;28;20030;-75
2022/06/08 02:57:56;;;;;;;2.47;1.33;;;15.40;81.60;;;;;;5025031;28;20030;-75
2022/06/08 03:00:33;;;;;;;2.03;1.50;;;15.30;81.60;;;;;;4994708;28;20467;-75
2022/06/08 03:03:14;;;;;;;2.20;1.40;;;15.20;81.60;;;;;;5026702;28;20038;-75
2022/06/08 03:05:47;;;;;;;1.85;1.33;;;15.10;81.70;;;;;;5010643;28;20045;-75
2022/06/08 03:08:19;;;;;;;1.30;1.05;;;15.10;81.70;;;;;;5027457;28;20037;-75
2022/06/08 03:10:48;;;;;;;3.42;1.35;;;15.10;81.70;;;;;;5010892;28;20042;-75
2022/06/08 03:13:22;;;;;;;2.08;1.27;;;15.10;81.80;;;;;;5009428;28;20050;-75
2022/06/08 03:15:52;;;;;;;2.33;1.60;;;15.00;81.80;;;;;;5012095;28;20101;-75
2022/06/08 03:18:18;;;;;;;1.77;1.20;;;15.00;81.90;;;;;;5029095;28;20042;-75
2022/06/08 03:20:44;;;;;;;2.13;1.40;;;14.90;82.60;;;;;;5028887;28;20045;-75
2022/06/08 03:23:10;;;;;;;1.45;1.20;;;14.90;82.10;;;;;;5030041;28;20037;-75
2022/06/08 03:25:36;;;;;;;1.20;1.10;;;14.90;82.10;;;;;;5029742;28;20045;-75
2022/06/08 03:28:03;;;;;;;1.75;1.15;;;14.90;82.20;;;;;;5029741;28;20046;-75
2022/06/08 03:30:29;;;;;;;2.15;1.48;;;14.80;82.20;;;;;;5031661;28;20065;-76
2022/06/08 03:32:54;;;;;;;1.90;1.13;;;14.80;82.30;;;;;;5035223;28;20037;-76
2022/06/08 03:35:20;;;;;;;2.38;1.50;;;14.80;82.30;;;;;;5034964;28;20045;-76
2022/06/08 03:37:46;;;;;;;1.80;1.40;;;14.80;82.40;;;;;;5035753;28;20052;-76
2022/06/08 03:40:13;;;;;;;1.77;1.23;;;14.80;82.40;;;;;;5035258;28;20053;-76
2022/06/08 03:42:38;;;;;;;1.77;1.30;;;14.80;82.30;;;;;;5035678;28;20068;-76
2022/06/08 03:45:06;;;;;;;1.52;1.30;;;14.90;82.40;;;;;;5019258;28;20050;-76
2022/06/08 03:47:38;;;;;;;2.20;1.20;;;14.90;82.30;;;;;;5036136;28;20046;-76
2022/06/08 03:50:07;;;;;;;1.50;1.10;;;14.80;82.30;;;;;;5035925;28;20041;-76
2022/06/08 03:52:41;;;;;;;1.40;1.10;;;14.90;82.20;;;;;;5035671;28;20054;-76
2022/06/08 03:55:09;;;;;;;1.80;1.27;;;14.80;82.20;;;;;;5035614;28;20085;-76
2022/06/08 03:57:36;;;;;;;2.05;1.42;;;14.90;82.20;;;;;;5035424;28;20034;-76
2022/06/08 04:00:04;;;;;;;2.10;1.23;;;14.90;82.20;;;;;;5034766;28;20105;-76
2022/06/08 04:02:30;;;;;;;1.35;1.10;;;14.90;82.20;;;;;;5035551;28;20062;-76
2022/06/08 04:04:56;;;;;;;1.70;1.23;;;14.90;82.20;;;;;;5017802;28;20053;-76
2022/06/08 04:07:21;;;;;;;1.60;1.30;;;14.90;82.10;;;;;;5035403;28;20025;-76
2022/06/08 04:09:47;;;;;;;1.70;1.38;;;15.00;82.10;;;;;;5035162;28;20050;-76
2022/06/08 04:12:13;;;;;;;1.48;1.08;;;14.90;82.10;;;;;;5035165;28;20038;-76
2022/06/08 04:14:39;;;;;;;1.50;1.20;;;14.90;82.10;;;;;;5018553;28;20045;-77
2022/06/08 04:17:07;;;;;;;1.80;1.40;;;15.00;82.10;;;;;;5034592;28;20097;-76
2022/06/08 04:19:33;;;;;;;1.70;1.27;;;15.00;82.10;;;;;;5018605;28;20046;-76
2022/06/08 04:21:59;;;;;;;2.10;1.48;;;15.00;82.10;;;;;;5018780;28;20030;-76
2022/06/08 04:24:25;;;;;;;1.60;1.20;;;14.90;82.10;;;;;;5033698;28;20046;-76
2022/06/08 04:26:52;;;;;;;1.60;1.20;;;15.00;82.20;;;;;;5036342;28;20026;-76
2022/06/08 04:29:19;;;;;;;2.03;1.42;;;15.00;82.20;;;;;;5036368;28;20064;-76
2022/06/08 04:31:45;;;;;;;1.58;1.25;;;15.00;82.20;;;;;;5015568;28;20045;-76
2022/06/08 04:34:13;;;;;;;2.08;1.50;;;15.00;82.30;;;;;;5026821;28;20042;-76
2022/06/08 04:36:40;;;;;;;2.17;1.40;;;14.90;82.30;;;;;;5028600;28;20132;-75
2022/06/08 04:39:07;;;;;;;1.60;1.10;;;15.00;82.30;;;;;;5009609;28;20034;-75
2022/06/08 04:41:34;;;;;;;2.35;1.30;;;15.00;82.30;;;;;;5027245;28;20042;-75
2022/06/08 04:44:00;;;;;;;1.17;1.00;;;15.00;82.30;;;;;;5009380;28;20045;-75
2022/06/08 04:46:26;;;;;;;1.48;1.25;;;15.10;82.40;;;;;;5025822;28;20037;-75
2022/06/08 04:48:51;;;;;;;2.65;1.25;;;15.00;82.30;;;;;;5009196;28;20045;-75
2022/06/08 04:51:18;;;;;;;2.47;1.20;;;15.20;82.20;;;;;;5025737;28;20128;-76
2022/06/08 04:53:45;;;;;;;1.35;1.10;;;15.20;82.20;;;;;;5002166;28;20053;-75
2022/06/08 04:56:11;;;;;;;1.58;1.15;;;15.30;82.10;;;;;;5025585;28;20044;-75
2022/06/08 04:58:37;;;;;;;2.03;1.48;;;15.40;82.10;;;;;;5007701;28;20065;-75
2022/06/08 05:01:04;;;;;;;1.70;1.40;;;15.40;81.90;;;;;;5007008;28;20123;-75
2022/06/08 05:03:30;;;;;;;1.48;1.10;;;15.60;81.80;;;;;;5023160;28;20041;-75
2022/06/08 05:05:58;;;;;;;1.88;1.20;;;15.60;81.70;;;;;;5029347;28;20046;-76
2022/06/08 05:08:24;;;;;;;1.20;1.08;;;15.60;81.70;;;;;;5030619;28;20045;-76
2022/06/08 05:10:51;;;;;;;1.52;0.95;;;15.70;81.70;;;;;;5030145;28;20113;-76
2022/06/08 05:13:18;;;;;;;1.00;0.88;;;15.70;81.70;;;;;;4996741;28;20109;-76
2022/06/08 05:15:45;;;;;;;1.08;0.95;;;15.80;81.70;;;;;;5028458;28;20060;-76
2022/06/08 05:18:14;;;;;;;0.80;0.80;;;15.90;81.60;;;;;;5011054;28;20046;-76
2022/06/08 05:20:43;;;;;;;1.58;1.13;;;16.00;81.60;;;;;;4990313;28;20106;-77
2022/06/08 05:23:14;;;;;;;0.70;0.70;;;16.00;81.40;;;;;;4989851;28;20054;-77
2022/06/08 05:25:41;;;;;;;1.75;1.20;;;16.10;81.30;;;;;;4987065;28;20047;-76
2022/06/08 05:28:09;;;;;;;0.90;0.90;;;16.30;81.90;;;;;;4989064;28;20109;-76
2022/06/08 05:30:36;;;;;;;2.13;1.42;;;16.30;81.30;;;;;;4938333;29;20044;-76
2022/06/08 05:33:03;;;;;;;1.85;1.17;;;16.30;81.20;;;;;;4970730;28;20056;-76
2022/06/08 05:35:30;;;;;;;1.10;0.90;;;16.40;81.30;;;;;;4954632;29;20055;-76
2022/06/08 05:37:56;;;;;;;1.40;1.10;;;16.30;81.20;;;;;;4970008;28;20067;-77
2022/06/08 05:40:23;;;;;;;1.95;1.20;;;16.40;81.30;;;;;;4968950;28;20137;-74
2022/06/08 05:42:49;;;;;;;1.00;0.90;;;16.50;81.40;;;;;;4962513;28;20043;-75
2022/06/08 05:45:21;;;;;;;1.00;0.90;;;16.50;81.30;;;;;;4963964;28;20562;-75
2022/06/08 05:47:47;;;;;;;1.48;1.05;;;16.50;81.40;;;;;;4946833;29;20054;-75
2022/06/08 05:50:14;;;;;;;1.08;1.00;;;16.60;81.50;;;;;;4960601;28;20043;-76
2022/06/08 05:52:41;;;;;;;1.35;1.02;;;16.60;81.50;;;;;;4987890;28;20109;-77
2022/06/08 05:55:09;;;;;;;1.35;1.05;;;16.70;81.50;;;;;;4973803;28;20043;-77
2022/06/08 05:57:36;;;;;;;1.90;1.20;;;16.80;81.50;;;;;;4957923;28;20483;-76
2022/06/08 06:00:05;;;;;;;1.27;1.10;;;16.90;81.50;;;;;;4989869;28;20414;-76
2022/06/08 06:02:30;;;;;;;1.27;1.02;;;16.90;81.30;;;;;;5007604;28;20485;-77
2022/06/08 06:04:56;;;;;;;1.42;1.10;;;17.00;81.20;;;;;;5011429;28;20046;-76
2022/06/08 06:07:22;;;;;;;0.95;0.77;;;17.10;81.10;;;;;;4980613;28;20047;-76
2022/06/08 06:09:48;;;;;;;0.70;0.50;;;17.20;81.20;;;;;;5028595;28;20124;-76
2022/06/08 06:12:13;;;;;;;0.73;0.73;;;17.20;81.10;;;;;;5024033;28;20132;-78
2022/06/08 06:14:39;;;;;;;0.95;0.70;;;17.30;81.00;;;;;;5018045;28;20030;-78
2022/06/08 06:17:05;;;;;;;1.13;1.00;;;17.40;81.00;;;;;;5018154;28;20038;-77
2022/06/08 06:19:31;;;;;;;1.38;1.13;;;17.40;81.00;;;;;;5032797;28;20101;-77
2022/06/08 06:21:57;;;;;;;2.35;1.00;;;17.50;81.00;;;;;;5016446;28;20069;-77
2022/06/08 06:24:23;;;;;;;1.10;1.00;;;17.50;81.00;;;;;;5036006;28;20042;-77
2022/06/08 06:26:48;;;;;;;2.15;1.02;;;17.50;81.00;;;;;;5035671;28;20018;-77
2022/06/08 06:29:15;;;;;;;2.15;1.23;;;17.60;81.00;;;;;;5022120;28;20109;-77
2022/06/08 06:31:46;;;;;;;1.95;1.40;;;17.70;81.00;;;;;;5022218;28;20058;-77
2022/06/08 06:34:14;;;;;;;1.75;1.23;;;17.80;81.50;;;;;;5034035;28;20061;-76
2022/06/08 06:36:40;;;;;;;1.52;1.20;;;17.80;80.80;;;;;;5038087;28;20108;-77
2022/06/08 06:39:05;;;;;;;1.88;1.30;;;17.90;80.60;;;;;;5039344;28;20041;-76
2022/06/08 06:41:37;;;;;;;1.20;1.10;;;18.00;80.60;;;;;;5036220;28;20030;-76
2022/06/08 06:44:04;;;;;;;1.42;0.93;;;18.00;80.60;;;;;;4967041;28;20107;-77
2022/06/08 06:47:09;;;;;;;1.58;1.30;;;18.10;80.60;;;;;;4998826;28;20124;-76
2022/06/08 06:49:47;;;;;;;1.33;1.10;;;18.10;81.20;;;;;;4954005;28;20408;-77
2022/06/08 06:52:18;;;;;;;0.90;0.90;;;18.20;80.50;;;;;;4922225;28;20059;-75
2022/06/08 06:54:45;;;;;;;1.75;0.93;;;18.20;80.40;;;;;;4922754;28;20040;-75
2022/06/08 06:57:11;;;;;;;1.10;0.90;;;18.20;80.40;;;;;;4957381;28;20031;-76
2022/06/08 06:59:38;;;;;;;1.08;0.90;;;18.30;80.50;;;;;;4963053;28;20377;-76
2022/06/08 07:02:11;;;;;;;1.55;1.20;;;18.30;80.40;;;;;;4942215;28;20396;-76
2022/06/08 07:04:37;;;;;;;1.67;1.08;;;18.50;80.50;;;;;;4961224;28;20518;-75
2022/06/08 07:07:03;;;;;;;1.70;0.60;;;18.40;80.40;;;;;;4955562;28;20036;-76
2022/06/08 07:09:29;;;;;;;1.10;0.80;;;18.40;80.30;;;;;;4957927;28;20027;-76
2022/06/08 07:11:55;;;;;;;0.82;0.80;;;18.50;80.40;;;;;;4962914;28;20514;-76
2022/06/08 07:14:20;;;;;;;1.00;0.90;;;18.50;80.40;;;;;;4999611;28;20049;-75
2022/06/08 07:16:47;;;;;;;0.80;0.70;;;18.60;80.30;;;;;;5025065;28;20120;-76
2022/06/08 07:19:14;;;;;;;0.85;0.80;;;18.60;80.20;;;;;;4995703;28;20031;-75
2022/06/08 07:21:41;;;;;;;1.08;0.80;;;18.60;80.20;;;;;;5017047;28;20034;-75
2022/06/08 07:24:07;;;;;;;0.70;0.70;;;18.70;80.20;;;;;;5016673;28;20045;-75
2022/06/08 07:26:34;;;;;;;0.75;0.70;;;18.70;80.30;;;;;;5017169;28;20101;-75
2022/06/08 07:29:00;;;;;;;0.80;0.80;;;18.60;80.30;;;;;;4997885;28;20030;-75
2022/06/08 07:31:28;;;;;;;0.88;0.82;;;18.50;80.50;;;;;;5006766;28;20041;-76
2022/06/08 07:34:02;;;;;;;1.25;1.00;;;18.50;80.60;;;;;;4992160;28;20054;-76
2022/06/08 07:36:28;;;;;;;0.80;0.70;;;18.50;80.70;;;;;;4962572;28;20040;-75
2022/06/08 07:39:32;;;;;;;0.70;0.63;;;18.50;80.80;;;;;;4949806;28;20051;-75
2022/06/08 07:42:05;;;;;;;0.82;0.65;;;18.60;80.70;;;;;;4942425;28;20055;-76
2022/06/08 07:44:31;;;;;;;1.15;0.85;;;18.60;80.70;;;;;;4912378;29;20531;-77
2022/06/08 07:47:07;;;;;;;0.65;0.65;;;18.80;80.70;;;;;;4931772;29;20044;-78
2022/06/08 07:49:41;;;;;;;0.65;0.60;;;18.80;80.60;;;;;;4887933;29;20071;-76
2022/06/08 07:52:16;;;;;;;0.60;0.60;;;18.90;80.40;;;;;;4899756;29;20056;-76
2022/06/08 07:54:45;;;;;;;1.00;0.55;;;18.90;80.20;;;;;;4923756;29;20048;-76
2022/06/08 07:57:35;;;;;;;0.60;0.60;;;19.00;80.10;;;;;;4900599;29;20139;-75
2022/06/08 08:00:10;;;;;;;0.70;0.70;;;19.00;80.00;;;;;;4917826;29;20055;-76
2022/06/08 08:02:41;;;;;;;1.33;0.80;;;19.10;80.00;;;;;;4884795;29;20127;-75
2022/06/08 08:05:09;;;;;;;1.40;0.90;;;19.20;80.00;;;;;;4886782;29;20048;-75
2022/06/08 08:07:36;;;;;;;1.50;1.02;;;19.40;79.90;;;;;;4915612;28;20064;-74
2022/06/08 08:10:08;;;;;;;1.45;0.85;;;19.50;79.30;;;;;;5013896;28;20103;-77
2022/06/08 08:12:37;;;;;;;1.02;0.73;;;19.70;79.00;;;;;;4974343;28;20077;-75
2022/06/08 08:15:04;;;;;;;0.50;0.50;;;19.90;78.70;;;;;;4975688;28;20046;-75
2022/06/08 08:17:30;;;;;;;0.90;0.60;;;19.90;78.40;;;;;;4958668;28;20117;-75
2022/06/08 08:19:56;;;;;;;0.93;0.70;;;20.00;78.10;;;;;;4976884;28;20038;-74
2022/06/08 08:22:22;;;;;;;0.93;0.80;;;20.20;77.90;;;;;;4959179;28;20602;-74
2022/06/08 08:24:48;;;;;;;2.15;0.90;;;20.30;77.70;;;;;;4975313;28;20027;-73
2022/06/08 08:27:14;;;;;;;1.15;0.82;;;20.30;77.60;;;;;;4992035;28;20499;-74
2022/06/08 08:29:48;;;;;;;1.48;0.77;;;20.50;77.60;;;;;;4963157;28;20457;-76
2022/06/08 08:32:14;;;;;;;1.08;0.98;;;20.70;77.20;;;;;;4931852;29;20043;-76
2022/06/08 08:34:40;;;;;;;1.27;1.05;;;20.90;77.40;;;;;;4903698;29;20112;-77
2022/06/08 08:37:28;;;;;;;1.63;0.85;;;20.70;76.40;;;;;;4943364;29;20050;-74
2022/06/08 08:40:12;;;;;;;2.45;0.80;;;20.80;76.70;;;;;;4893544;29;20140;-76
2022/06/08 08:43:00;;;;;;;0.88;0.82;;;20.80;76.70;;;;;;4899352;29;20048;-75
2022/06/08 08:45:32;;;;;;;0.82;0.82;;;20.90;76.50;;;;;;4927307;29;20046;-76
2022/06/08 08:48:06;;;;;;;0.63;0.63;;;21.00;76.60;;;;;;4935778;29;20035;-76
2022/06/08 08:50:49;;;;;;;2.45;0.73;;;21.20;76.60;;;;;;4901690;29;20547;-76
2022/06/08 08:53:32;;;;;;;1.10;0.70;;;21.20;76.20;;;;;;4902808;29;20051;-77
2022/06/08 08:56:12;;;;;;;1.50;0.90;;;21.10;76.40;;;;;;4907606;28;20149;-76
2022/06/08 08:58:42;;;;;;;1.10;0.73;;;21.10;76.50;;;;;;4972222;28;20070;-75
2022/06/08 09:01:28;;;;;;;2.72;1.10;;;21.00;76.60;;;;;;4961250;28;20090;-75
2022/06/08 09:04:05;;;;;;;1.38;0.98;;;20.80;76.80;;;;;;4958083;28;20041;-75
2022/06/08 09:06:33;;;;;;;0.82;0.82;;;20.80;77.10;;;;;;4961374;28;20034;-77
2022/06/08 09:09:04;;;;;;;1.20;0.85;;;20.70;77.40;;;;;;4964097;28;20095;-76
2022/06/08 09:11:37;;;;;;;;;;;20.60;77.50;;;;;;5010375;28;20056;-77
2022/06/08 09:14:19;;;;;;;1.77;1.00;;;20.70;77.50;;;;;;5001273;28;20004;-77
2022/06/08 09:16:48;;;;;;;1.77;0.90;;;20.80;77.40;;;;;;5020079;28;20065;-78
2022/06/08 09:19:29;;;;;;;0.93;0.70;;;20.80;77.20;;;;;;5020626;28;20042;-79
2022/06/08 09:22:24;;;;;;;0.88;0.60;;;21.00;77.00;;;;;;5012805;28;20121;-78
2022/06/08 09:25:01;;;;;;;0.80;0.70;;;21.10;76.70;;;;;;4990965;28;20035;-74
2022/06/08 09:27:33;;;;;;;1.60;0.93;;;21.10;76.80;;;;;;4993884;28;20041;-76
2022/06/08 09:30:27;;;;;;;1.10;0.80;;;20.90;76.80;;;;;;5019302;28;20090;-77
2022/06/08 09:32:59;;;;;;;1.50;1.02;;;20.90;77.00;;;;;;5005122;28;20050;-77
2022/06/08 09:35:37;;;;;;;0.88;0.85;;;20.80;77.10;;;;;;4971316;28;20037;-75
2022/06/08 09:38:09;;;;;;;1.27;0.82;;;20.80;77.20;;;;;;4997485;28;20151;-75
2022/06/08 09:40:54;;;;;;;1.85;0.80;;;20.70;77.10;;;;;;5012946;28;20088;-74
2022/06/08 09:43:45;;;;;;;1.30;0.80;;;20.70;77.20;;;;;;5011900;28;20041;-74
2022/06/08 09:52:53;;;;;;;2.58;0.98;;;20.90;76.90;;;;;;5021589;28;20050;-75
2022/06/08 09:55:35;;;;;;;1.92;0.90;;;20.80;76.60;;;;;;5011752;28;20046;-74
2022/06/08 09:58:39;;;;;;;0.70;0.70;;;20.90;76.80;;;;;;5013562;28;20033;-75
2022/06/08 10:01:27;;;;;;;1.45;0.73;;;20.80;76.60;;;;;;5016299;28;20050;-77
2022/06/08 10:04:12;;;;;;;1.20;0.70;;;20.80;76.50;;;;;;5014689;28;20042;-75
2022/06/08 10:07:10;;;;;;;0.70;0.70;;;20.80;76.40;;;;;;4999283;28;20038;-75
2022/06/08 10:09:59;;;;;;;1.17;0.95;;;20.80;76.50;;;;;;5016759;28;20037;-75
2022/06/08 10:13:01;;;;;;;0.85;0.77;;;20.80;76.50;;;;;;5018084;28;20046;-75
2022/06/08 10:15:34;;;;;;;0.60;0.60;;;20.70;76.60;;;;;;5018200;28;20494;-76
2022/06/08 10:18:22;;;;;;;1.85;1.02;;;20.70;76.50;;;;;;5022622;28;20030;-76
2022/06/08 10:20:52;;;;;;;1.50;0.90;;;20.60;76.40;;;;;;4997971;28;20056;-76
2022/06/08 10:23:25;;;;;;;2.58;1.00;;;20.50;76.60;;;;;;4997659;28;20485;-76
2022/06/08 10:25:57;;;;;;;2.47;0.90;;;20.40;76.70;;;;;;5015165;28;20041;-76
2022/06/08 10:28:35;;;;;;;1.00;0.90;;;20.40;76.90;;;;;;4997191;28;20048;-76
2022/06/08 10:31:06;;;;;;;2.58;0.93;;;20.40;76.80;;;;;;4996814;28;20505;-76
2022/06/08 10:33:47;;;;;;;1.67;0.90;;;20.40;76.70;;;;;;5014678;28;20038;-76
2022/06/08 10:36:13;;;;;;;1.05;0.80;;;20.40;76.60;;;;;;5014443;28;20037;-76
2022/06/08 10:38:42;;;;;;;1.20;0.90;;;20.30;76.40;;;;;;4980365;28;20034;-76
2022/06/08 10:44:35;;;;;;;4.25;1.10;;;20.30;76.60;;;;;;5011427;28;20042;-76
2022/06/08 10:47:18;;;;;;;1.27;0.80;;;20.10;76.50;;;;;;4996416;28;20041;-75
2022/06/08 10:49:51;;;;;;;1.25;0.70;;;20.10;76.60;;;;;;4996986;28;20489;-75
2022/06/08 10:52:40;;;;;;;2.22;0.75;;;20.00;76.70;;;;;;4997152;28;20050;-74
2022/06/08 10:55:30;;;;;;;0.65;0.65;;;19.90;76.70;;;;;;4998536;28;20030;-82
2022/06/08 10:58:08;;;;;;;0.75;0.60;;;19.70;77.10;;;;;;5014539;28;20033;-78
2022/06/08 11:00:58;;;;;;;1.67;0.80;;;19.50;77.40;;;;;;5014674;28;20505;-76
2022/06/08 11:03:49;;;;;;;1.60;0.80;;;19.30;77.80;;;;;;5014351;28;20038;-75
2022/06/08 11:06:50;;;;;;;1.35;0.70;;;19.10;78.30;;;;;;4996469;28;20038;-76
2022/06/08 11:09:40;;;;;;;1.45;0.50;;;18.80;78.80;;;;;;4983393;28;20389;-75
2022/06/08 11:12:30;;;;;;;0.65;0.50;;;18.70;79.20;;;;;;4981949;28;20481;-75
2022/06/08 11:15:00;;;;;;;0.52;0.50;;;18.70;79.60;;;;;;5013004;28;20088;-75
2022/06/08 11:17:34;;;;;;;0.50;0.50;;;18.50;79.80;;;;;;4996019;28;20038;-74
2022/06/08 11:20:25;;;;;;;0.93;0.70;;;18.60;79.90;;;;;;5014015;28;20038;-75
2022/06/08 11:23:01;;;;;;;1.00;0.52;;;18.50;79.90;;;;;;5014060;28;20045;-76
2022/06/08 11:25:32;;;;;;;1.73;0.60;;;18.60;79.80;;;;;;5013970;28;20060;-75
2022/06/08 11:28:31;;;;;;;1.70;0.57;;;18.50;79.50;;;;;;4996970;28;20116;-76
2022/06/08 11:31:01;;;;;;;1.33;0.63;;;18.60;79.60;;;;;;5013917;28;20683;-75
2022/06/08 11:33:48;;;;;;;1.98;0.60;;;18.60;79.70;;;;;;5014350;28;20057;-74
2022/06/08 11:36:42;;;;;;;0.75;0.55;;;18.70;79.70;;;;;;4996180;28;20034;-74
2022/06/08 11:39:26;;;;;;;1.63;0.70;;;18.50;79.60;;;;;;5014441;28;20045;-73
2022/06/08 11:42:24;;;;;;;1.73;0.80;;;18.40;79.60;;;;;;4996475;28;20044;-75
2022/06/08 11:44:55;;;;;;;2.03;0.95;;;18.30;79.80;;;;;;4993894;28;20081;-77
2022/06/08 11:47:32;;;;;;;;;;;18.20;80.10;;;;;;5014453;28;20513;-75
2022/06/08 11:50:02;;;;;;;1.30;0.60;;;18.00;80.10;;;;;;5013908;28;19960;-76
2022/06/08 11:52:35;;;;;;;1.08;0.50;;;18.00;80.20;;;;;;5013952;28;20049;-74
2022/06/08 11:55:13;;;;;;;0.60;0.60;;;18.00;80.30;;;;;;5013807;28;20117;-74
2022/06/08 11:58:08;;;;;;;1.25;0.70;;;17.90;80.30;;;;;;5013997;28;20034;-73
2022/06/08 12:00:55;;;;;;;0.70;0.50;;;17.90;80.40;;;;;;5013422;28;20084;-74
2022/06/08 12:03:40;;;;;;;1.33;0.75;;;17.90;80.50;;;;;;5014001;28;20042;-74
2022/06/08 12:06:18;;;;;;;0.52;0.52;;;17.90;80.60;;;;;;5013855;28;20046;-75
2022/06/08 12:08:54;;;;;;;0.60;0.47;;;17.80;80.60;;;;;;4995887;28;20053;-74
2022/06/08 12:11:23;;;;;;;1.50;0.73;;;17.80;80.70;;;;;;5013219;28;20457;-73
2022/06/08 12:14:17;;;;;;;0.77;0.45;;;17.80;80.80;;;;;;4995648;28;20049;-75
2022/06/08 12:16:58;;;;;;;2.33;0.70;;;17.70;80.70;;;;;;4994798;28;20030;-74
2022/06/08 12:19:30;;;;;;;0.55;0.38;;;17.80;80.80;;;;;;4979155;28;20030;-75
2022/06/08 12:22:18;;;;;;;1.05;0.55;;;17.70;80.80;;;;;;4995832;28;20489;-74
2022/06/08 12:25:02;;;;;;;0.68;0.68;;;17.70;81.00;;;;;;4995898;28;20041;-75
2022/06/08 12:27:28;;;;;;;1.45;0.65;;;17.80;80.90;;;;;;4995112;28;20084;-75
2022/06/08 12:29:58;;;;;;;0.65;0.47;;;17.60;80.80;;;;;;4995544;28;20124;-74
2022/06/08 12:32:48;;;;;;;0.70;0.60;;;17.50;80.90;;;;;;5012908;28;20106;-73
2022/06/08 12:35:26;;;;;;;0.75;0.47;;;17.50;81.10;;;;;;5013062;28;20120;-74
2022/06/08 12:38:16;;;;;;;0.93;0.52;;;17.40;81.20;;;;;;4995988;28;20030;-75
2022/06/08 12:40:55;;;;;;;0.70;0.60;;;17.30;81.20;;;;;;4995747;28;20068;-75
2022/06/08 12:43:21;;;;;;;0.50;0.50;;;17.40;81.10;;;;;;5013462;28;20044;-76
2022/06/08 12:46:12;;;;;;;0.57;0.40;;;17.50;81.10;;;;;;5013212;28;20034;-74
2022/06/08 12:48:46;;;;;;;0.90;0.50;;;17.40;81.20;;;;;;5012907;28;20042;-74
2022/06/08 12:51:33;;;;;;;0.50;0.50;;;17.40;81.10;;;;;;5013411;28;20046;-73
2022/06/08 12:54:01;;;;;;;1.60;0.65;;;17.40;81.20;;;;;;5013338;28;20049;-73
2022/06/08 12:56:30;;;;;;;1.40;0.60;;;17.30;81.30;;;;;;4993798;28;20041;-74
2022/06/08 12:58:56;;;;;;;1.60;0.60;;;17.30;81.30;;;;;;4996050;28;20040;-74
2022/06/08 13:01:29;;;;;;;0.95;0.65;;;17.30;81.30;;;;;;5012874;28;20128;-73
2022/06/08 13:03:56;;;;;;;0.47;0.45;;;17.40;81.40;;;;;;4978685;28;20129;-74
2022/06/08 13:06:24;;;;;;;1.63;0.50;;;17.30;81.30;;;;;;4979015;28;20041;-74
2022/06/08 13:08:50;;;;;;;0.40;0.40;;;17.20;81.40;;;;;;4995792;28;20065;-73
2022/06/08 13:11:20;;;;;;;0.50;0.50;;;17.10;81.60;;;;;;5012647;28;20062;-74
2022/06/08 13:13:47;;;;;;;0.60;0.40;;;17.00;81.80;;;;;;4995365;28;20049;-76
2022/06/08 13:16:19;;;;;;;0.70;0.50;;;17.00;81.90;;;;;;5012440;28;20088;-74
2022/06/08 13:18:50;;;;;;;0.35;0.35;;;16.90;81.90;;;;;;5012411;28;20038;-75
2022/06/08 13:21:16;;;;;;;1.58;0.65;;;17.00;82.00;;;;;;5012569;28;20054;-74
2022/06/08 13:23:42;;;;;;;0.45;0.45;;;17.00;81.90;;;;;;5012408;28;20077;-73
2022/06/08 13:26:16;;;;;;;0.60;0.50;;;16.90;82.00;;;;;;5012561;28;20044;-74
2022/06/08 13:28:42;;;;;;;1.17;0.60;;;16.80;82.10;;;;;;5012024;28;20045;-74
2022/06/08 13:31:10;;;;;;;0.50;0.40;;;16.80;82.20;;;;;;5012281;28;20041;-76
2022/06/08 13:36:32;;;;;;;2.30;0.60;;;16.70;82.50;;;;;;5012220;28;20092;-74